This is the latest recevied weather packets stored in our database for station/object VE7KNL-13. If no packets are shown the sender has not sent any weather packets the latest 10 day(s).
| Time | Temp. | Humidity | Pressure | Rain* | Wind** | Luminosity | Snow |
|---|---|---|---|---|---|---|---|
| 1778019016 | 25° C | 20% | 1007.6 hPa | 0 mm | - | - | - |
| 1778017837 | 24.44° C | 22% | 1007.8 hPa | 0 mm | - | - | - |
| 1778011818 | 23.33° C | 29% | 1009.1 hPa | 0 mm | - | - | - |
| 1778010618 | 22.78° C | 29% | 1009.4 hPa | 0 mm | - | - | - |
| 1778007018 | 22.22° C | 29% | 1009.8 hPa | 0 mm | - | - | - |
| 1778005817 | 21.67° C | 29% | 1010.1 hPa | 0 mm | - | - | - |
| 1778003438 | 20.56° C | 33% | 1010.4 hPa | 0 mm | - | - | - |
| 1777998617 | 17.78° C | 45% | 1010.8 hPa | 0 mm | - | - | - |
| 1777997417 | 16.67° C | 49% | 1011.1 hPa | 0 mm | - | - | - |
| 1777987217 | 4.44° C | 89% | 1010.7 hPa | 0 mm | - | - | - |
| 1777986657 | 4.44° C | 89% | 1010.5 hPa | 0 mm | - | - | - |
| 1777985417 | 4.44° C | 88% | 1010.3 hPa | 0 mm | - | - | - |
| 1777983017 | 4.44° C | 88% | 1010.1 hPa | 0 mm | - | - | - |
| 1777981257 | 5° C | 87% | 1010.1 hPa | 0 mm | - | - | - |
| 1777977016 | 5.56° C | 86% | 1009.6 hPa | 0 mm | - | - | - |
| 1777975837 | 5.56° C | 84% | 1009.2 hPa | 0 mm | - | - | - |
| 1777973416 | 6.67° C | 83% | 1009.3 hPa | 0 mm | - | - | - |
| 1777969816 | 7.22° C | 80% | 1008.8 hPa | 0 mm | - | - | - |
| 1777960817 | 11.11° C | 71% | 1007.9 hPa | 0 mm | - | - | - |
| 1777958417 | 11.67° C | 68% | 1007.5 hPa | 0 mm | - | - | - |
| 1777952457 | 16.11° C | 56% | 1005.3 hPa | 0 mm | - | - | - |
| 1777948837 | 21.11° C | 36% | 1004.5 hPa | 0 mm | - | - | - |
| 1777944017 | 24.44° C | 26% | 1004.4 hPa | 0 mm | - | - | - |
| 1777942216 | 24.44° C | 26% | 1004.3 hPa | 0 mm | - | - | - |
| 1777940416 | 24.44° C | 26% | 1004.4 hPa | 0 mm | - | - | - |
* Rain latest hour (hover to see other rain measurements)
** Current wind speed in m/s (hover to see current wind gust speed)